createdAt,value
2023-02-07T00:00:51.393Z,102817.63671875
2023-02-07T00:01:51.820Z,102811.296875
2023-02-07T00:02:51.420Z,102807.78515625
2023-02-07T00:03:51.456Z,102810.5
2023-02-07T00:04:51.465Z,102807.5625
2023-02-07T00:05:53.791Z,102809.58984375
2023-02-07T00:06:51.714Z,102809.69921875
2023-02-07T00:07:51.454Z,102812.61328125
2023-02-07T00:08:51.730Z,102810.5390625
2023-02-07T00:09:51.416Z,102809.5625
2023-02-07T00:10:51.417Z,102810.30859375
2023-02-07T00:11:51.719Z,102811.453125
2023-02-07T00:12:51.426Z,102812.89453125
2023-02-07T00:13:51.433Z,102817.82421875
2023-02-07T00:14:51.360Z,102824.1171875
2023-02-07T00:15:51.357Z,102827.9140625
2023-02-07T00:16:56.186Z,102830.390625
2023-02-07T00:17:51.491Z,102830.3203125
2023-02-07T00:18:51.451Z,102832.3515625
2023-02-07T00:19:51.390Z,102834.81640625
2023-02-07T00:20:51.357Z,102836.35546875
2023-02-07T00:21:51.496Z,102836.90234375
2023-02-07T00:22:51.388Z,102839.515625
2023-02-07T00:23:51.728Z,102838.25390625
2023-02-07T00:24:51.424Z,102842.3984375
2023-02-07T00:25:51.344Z,102840.29296875
2023-02-07T00:26:51.716Z,102841.41015625
2023-02-07T00:27:53.798Z,102848.0703125
2023-02-07T00:28:51.453Z,102847.625
2023-02-07T00:29:51.479Z,102849.37109375
2023-02-07T00:30:51.638Z,102850.70703125
2023-02-07T00:31:51.716Z,102852.65234375
2023-02-07T00:32:51.426Z,102847.55078125
2023-02-07T00:33:51.478Z,102843.96484375
2023-02-07T00:34:51.442Z,102841.5
2023-02-07T00:35:51.354Z,102843.1796875
2023-02-07T00:36:51.708Z,102842.33984375
2023-02-07T00:37:51.354Z,102833.95703125
2023-02-07T00:38:56.185Z,102830.4375
2023-02-07T00:39:51.404Z,102832.8984375
2023-02-07T00:40:51.366Z,102827.6875
2023-02-07T00:41:51.705Z,102831.68359375
2023-02-07T00:42:51.495Z,102834.0703125
2023-02-07T00:43:51.373Z,102831.14453125
2023-02-07T00:44:51.420Z,102832.95703125
2023-02-07T00:45:51.419Z,102833.3671875
2023-02-07T00:46:51.704Z,102833.51171875
2023-02-07T00:47:51.434Z,102840.19921875
2023-02-07T00:48:51.430Z,102835.34375
2023-02-07T00:49:53.789Z,102839.2890625
2023-02-07T00:50:51.464Z,102831.47265625
2023-02-07T00:51:51.716Z,102829.21484375
2023-02-07T00:52:51.424Z,102832.28125
2023-02-07T00:53:51.716Z,102829.44921875
2023-02-07T00:54:51.502Z,102827.3125
2023-02-07T00:55:51.439Z,102825.10546875
2023-02-07T00:56:51.705Z,102818.19140625
2023-02-07T00:57:51.392Z,102820
2023-02-07T00:58:51.459Z,102818.07421875
2023-02-07T00:59:51.412Z,102817.34375
2023-02-07T01:00:53.845Z,102818.16796875
2023-02-07T01:01:51.711Z,102823.6953125
2023-02-07T01:02:51.446Z,102817.3984375
2023-02-07T01:03:51.392Z,102817.453125
2023-02-07T01:04:51.561Z,102816.1171875
2023-02-07T01:05:51.419Z,102815.22265625
2023-02-07T01:06:51.723Z,102814.1484375
2023-02-07T01:07:51.503Z,102815.81640625
2023-02-07T01:08:51.730Z,102815.7109375
2023-02-07T01:09:51.476Z,102810.79296875
2023-02-07T01:10:51.358Z,102814.48828125
2023-02-07T01:11:53.692Z,102813.14453125
2023-02-07T01:12:51.404Z,102809.80859375
2023-02-07T01:13:51.385Z,102808.9765625
2023-02-07T01:14:51.475Z,102809.45703125
2023-02-07T01:15:51.563Z,102801.66015625
2023-02-07T01:16:51.718Z,102807.49609375
2023-02-07T01:17:51.475Z,102807.6953125
2023-02-07T01:18:51.394Z,102811.2109375
2023-02-07T01:19:51.501Z,102818.16015625
2023-02-07T01:20:51.369Z,102816.546875
2023-02-07T01:21:51.710Z,102812.57421875
2023-02-07T01:22:53.693Z,102815.75
2023-02-07T01:23:51.725Z,102811.109375
2023-02-07T01:24:51.449Z,102816.0078125
2023-02-07T01:25:51.357Z,102812.13671875
2023-02-07T01:26:51.724Z,102812.3359375
2023-02-07T01:27:51.446Z,102813.8046875
2023-02-07T01:28:51.382Z,102815.99609375
2023-02-07T01:29:51.505Z,102818.48828125
2023-02-07T01:30:51.547Z,102821.4453125
2023-02-07T01:31:51.809Z,102824.20703125
2023-02-07T01:32:51.496Z,102819.5390625
2023-02-07T01:33:53.744Z,102822.66015625
2023-02-07T01:34:51.437Z,102822.24609375
2023-02-07T01:35:51.400Z,102824.07421875
2023-02-07T01:36:51.716Z,102819.53125
2023-02-07T01:37:51.497Z,102819.1328125
2023-02-07T01:38:51.723Z,102817.171875
2023-02-07T01:39:51.412Z,102816.37890625
2023-02-07T01:40:51.478Z,102814.48046875
2023-02-07T01:41:51.720Z,102814.46484375
2023-02-07T01:42:51.366Z,102812.7265625
2023-02-07T01:43:51.434Z,102811.97265625
2023-02-07T01:44:53.672Z,102813.015625
2023-02-07T01:45:51.367Z,102814.01953125
2023-02-07T01:46:51.716Z,102811.37890625
2023-02-07T01:47:51.419Z,102814.15234375
2023-02-07T01:48:51.365Z,102816.7734375
2023-02-07T01:49:51.473Z,102820.3671875
2023-02-07T01:50:51.492Z,102821.79296875
2023-02-07T01:51:51.715Z,102823.94921875
2023-02-07T01:52:51.491Z,102821.90625
2023-02-07T01:53:51.714Z,102816.5625
2023-02-07T01:54:51.370Z,102816.2265625
2023-02-07T01:55:53.795Z,102816.765625
2023-02-07T01:56:51.715Z,102818.6328125
2023-02-07T01:57:51.469Z,102818.453125
2023-02-07T01:58:51.366Z,102823.72265625
2023-02-07T01:59:51.415Z,102823.43359375
2023-02-07T02:00:51.443Z,102826.20703125
2023-02-07T02:01:51.721Z,102825.8046875
2023-02-07T02:02:51.483Z,102827.71875
2023-02-07T02:03:51.492Z,102829.40625
2023-02-07T02:04:51.394Z,102827.05859375
2023-02-07T02:05:51.356Z,102830.08203125
2023-02-07T02:06:56.165Z,102834.46875
2023-02-07T02:07:51.375Z,102825.68359375
2023-02-07T02:08:51.759Z,102822.5078125
2023-02-07T02:09:51.487Z,102826.4296875
2023-02-07T02:10:51.460Z,102819.73046875
2023-02-07T02:11:51.718Z,102825.76171875
2023-02-07T02:12:51.486Z,102820.34765625
2023-02-07T02:13:51.496Z,102824.86328125
2023-02-07T02:14:51.413Z,102828.13671875
2023-02-07T02:15:51.434Z,102827.921875
2023-02-07T02:16:51.746Z,102829.65234375
2023-02-07T02:17:53.759Z,102831.33203125
2023-02-07T02:18:51.507Z,102829.35546875
2023-02-07T02:19:51.430Z,102825.8984375
2023-02-07T02:20:51.411Z,102821.26171875
2023-02-07T02:21:51.716Z,102824.23828125
2023-02-07T02:22:51.446Z,102822.66015625
2023-02-07T02:23:51.724Z,102823.15234375
2023-02-07T02:24:51.376Z,102831.37109375
2023-02-07T02:25:51.475Z,102826.953125
2023-02-07T02:26:51.715Z,102829.2109375
2023-02-07T02:27:51.532Z,102830.11328125
2023-02-07T02:28:53.788Z,102832.60546875
2023-02-07T02:29:51.364Z,102837.3359375
2023-02-07T02:30:51.696Z,102835.91796875
2023-02-07T02:31:52.458Z,102836.3359375
2023-02-07T02:32:51.505Z,102839.2578125
2023-02-07T02:33:51.708Z,102835.95703125
2023-02-07T02:34:51.496Z,102836.7890625
2023-02-07T02:35:51.503Z,102836.8671875
2023-02-07T02:36:51.475Z,102835.05078125
2023-02-07T02:37:51.713Z,102838.5390625
2023-02-07T02:38:51.713Z,102833.12109375
2023-02-07T02:39:53.723Z,102835.23046875
2023-02-07T02:40:51.473Z,102836.12890625
2023-02-07T02:41:51.352Z,102837.4296875
2023-02-07T02:42:51.719Z,102834.08984375
2023-02-07T02:43:51.370Z,102834.4609375
2023-02-07T02:44:51.426Z,102836.41796875
2023-02-07T02:45:51.436Z,102834.9375
2023-02-07T02:46:51.457Z,102840.375
2023-02-07T02:47:51.732Z,102834.41796875
2023-02-07T02:48:51.494Z,102840.66015625
2023-02-07T02:49:51.381Z,102837.76171875
2023-02-07T02:50:53.739Z,102834.37890625
2023-02-07T02:51:51.482Z,102835.046875
2023-02-07T02:52:51.717Z,102831.58203125
2023-02-07T02:53:51.714Z,102833.90625
2023-02-07T02:54:51.464Z,102835.39453125
2023-02-07T02:55:51.491Z,102837.40625
2023-02-07T02:56:51.494Z,102840.203125
2023-02-07T02:57:51.721Z,102840.4921875
2023-02-07T02:58:51.501Z,102839.04296875
2023-02-07T02:59:51.456Z,102834.4140625
2023-02-07T03:00:51.383Z,102832.13671875
2023-02-07T03:01:53.848Z,102828.70703125
2023-02-07T03:02:51.732Z,102829.375
2023-02-07T03:03:51.498Z,102831.8515625
2023-02-07T03:04:51.451Z,102835.6015625
2023-02-07T03:05:51.513Z,102835.10546875
2023-02-07T03:06:51.526Z,102838.6953125
2023-02-07T03:07:51.714Z,102837.99609375
2023-02-07T03:08:51.973Z,102833.4375
2023-02-07T03:09:51.501Z,102835.37109375
2023-02-07T03:10:51.640Z,102832.04296875
2023-02-07T03:11:51.498Z,102828.328125
2023-02-07T03:12:56.127Z,102825.2890625
2023-02-07T03:13:51.413Z,102822.81640625
2023-02-07T03:14:51.396Z,102821.3671875
2023-02-07T03:15:51.435Z,102821.90625
2023-02-07T03:16:51.375Z,102821.33984375
2023-02-07T03:17:51.718Z,102820.3359375
2023-02-07T03:18:51.384Z,102820.17578125
2023-02-07T03:19:51.505Z,102815.046875
2023-02-07T03:20:51.377Z,102809.8828125
2023-02-07T03:21:51.447Z,102808.15234375
2023-02-07T03:22:51.719Z,102805.12890625
2023-02-07T03:23:56.148Z,102807.7890625
2023-02-07T03:24:51.365Z,102808.60546875
2023-02-07T03:25:51.387Z,102807.07421875
2023-02-07T03:26:51.458Z,102804.35546875
2023-02-07T03:27:51.735Z,102807.09375
2023-02-07T03:28:51.398Z,102805.0703125
2023-02-07T03:29:51.481Z,102805.875
2023-02-07T03:30:51.545Z,102809.8203125
2023-02-07T03:31:51.474Z,102809.40625
2023-02-07T03:32:51.708Z,102813.6484375
2023-02-07T03:33:51.440Z,102815.453125
2023-02-07T03:34:53.809Z,102817.625
2023-02-07T03:35:51.498Z,102819.046875
2023-02-07T03:36:51.378Z,102819.0703125
2023-02-07T03:37:51.715Z,102818.4609375
2023-02-07T03:38:51.718Z,102818.27734375
2023-02-07T03:39:51.476Z,102818.453125
2023-02-07T03:40:51.484Z,102818.109375
2023-02-07T03:41:51.492Z,102818.25390625
2023-02-07T03:42:51.713Z,102813.73046875
2023-02-07T03:43:51.371Z,102814.22265625
2023-02-07T03:44:51.396Z,102813.359375
2023-02-07T03:45:53.817Z,102813.546875
2023-02-07T03:46:51.391Z,102814.7265625
2023-02-07T03:47:51.735Z,102818.1875
2023-02-07T03:48:51.432Z,102816.28515625
2023-02-07T03:49:51.355Z,102816.4765625
2023-02-07T03:50:51.379Z,102813.75
2023-02-07T03:51:51.383Z,102812.59765625
2023-02-07T03:52:51.741Z,102813.89453125
2023-02-07T03:53:51.717Z,102813.41015625
2023-02-07T03:54:51.508Z,102813.171875
2023-02-07T03:55:51.357Z,102810.23046875
2023-02-07T03:56:53.828Z,102812.4609375
2023-02-07T03:57:51.708Z,102813.57421875
2023-02-07T03:58:51.407Z,102812.3515625
2023-02-07T03:59:51.418Z,102814.53515625
2023-02-07T04:00:51.452Z,102812.7421875
2023-02-07T04:01:51.452Z,102812.515625
2023-02-07T04:02:51.714Z,102812.55859375
2023-02-07T04:03:51.469Z,102810.97265625
2023-02-07T04:04:51.380Z,102811.16796875
2023-02-07T04:05:51.386Z,102811.48828125
2023-02-07T04:06:51.438Z,102812.640625
2023-02-07T04:07:56.128Z,102816.7265625
2023-02-07T04:08:51.728Z,102819.875
2023-02-07T04:09:51.537Z,102821.5859375
2023-02-07T04:10:51.505Z,102821.125
2023-02-07T04:11:51.449Z,102824.69140625
2023-02-07T04:12:51.721Z,102820.9375
2023-02-07T04:13:51.484Z,102822.953125
2023-02-07T04:14:51.371Z,102821.4453125
2023-02-07T04:15:51.485Z,102818.28515625
2023-02-07T04:16:51.433Z,102820.234375
2023-02-07T04:17:51.713Z,102811.95703125
2023-02-07T04:18:53.719Z,102814.4375
2023-02-07T04:19:51.406Z,102811.109375
2023-02-07T04:20:51.500Z,102813.44140625
2023-02-07T04:21:51.468Z,102810.96484375
2023-02-07T04:22:51.717Z,102814.81640625
2023-02-07T04:23:51.718Z,102812.109375
2023-02-07T04:24:51.428Z,102813.265625
2023-02-07T04:25:51.505Z,102811.84375
2023-02-07T04:26:51.476Z,102817.3515625
2023-02-07T04:27:51.799Z,102818.6796875
2023-02-07T04:28:51.335Z,102820.41796875
2023-02-07T04:29:53.793Z,102823.390625
2023-02-07T04:30:51.403Z,102821.9765625
2023-02-07T04:31:51.491Z,102821.98828125
2023-02-07T04:32:51.734Z,102820.44921875
2023-02-07T04:33:51.359Z,102824.05078125
2023-02-07T04:34:51.368Z,102823.3359375
2023-02-07T04:35:51.380Z,102829.1796875
2023-02-07T04:36:51.432Z,102831.6875
2023-02-07T04:37:51.709Z,102833.0234375
2023-02-07T04:38:51.710Z,102833.00390625
2023-02-07T04:39:51.475Z,102833.828125
2023-02-07T04:40:53.694Z,102836.7734375
2023-02-07T04:41:51.458Z,102835.2890625
2023-02-07T04:42:51.713Z,102835.4375
2023-02-07T04:43:51.470Z,102833.4921875
2023-02-07T04:44:51.490Z,102835.61328125
2023-02-07T04:45:51.524Z,102837.08984375
2023-02-07T04:46:51.386Z,102838.08203125
2023-02-07T04:47:51.708Z,102835.8203125
2023-02-07T04:48:51.490Z,102837.1875
2023-02-07T04:49:51.443Z,102837.74609375
2023-02-07T04:50:51.446Z,102836.1796875
2023-02-07T04:51:53.791Z,102836.36328125
2023-02-07T04:52:53.231Z,102834.3046875
2023-02-07T04:53:51.710Z,102836.64453125
2023-02-07T04:54:51.366Z,102838.9921875
2023-02-07T04:55:51.454Z,102834.89453125
2023-02-07T04:56:51.445Z,102835.0078125
2023-02-07T04:57:51.715Z,102836.07421875
2023-02-07T04:58:51.386Z,102834.59375
2023-02-07T04:59:51.449Z,102834.6328125
2023-02-07T05:00:51.383Z,102835.24609375
2023-02-07T05:01:51.491Z,102832.640625
2023-02-07T05:02:56.164Z,102828.625
2023-02-07T05:03:51.468Z,102829.6328125
2023-02-07T05:04:51.465Z,102826.6640625
2023-02-07T05:05:51.370Z,102829.3515625
2023-02-07T05:06:51.436Z,102830.32421875
2023-02-07T05:07:51.712Z,102835.734375
2023-02-07T05:08:51.727Z,102835.8359375
2023-02-07T05:09:51.434Z,102841.39453125
2023-02-07T05:10:51.492Z,102841.26953125
2023-02-07T05:11:51.478Z,102846.12109375
2023-02-07T05:12:51.717Z,102844.07421875
2023-02-07T05:13:53.891Z,102843.703125
2023-02-07T05:14:51.482Z,102843.375
2023-02-07T05:15:51.448Z,102844.5703125
2023-02-07T05:16:51.482Z,102842.3203125
2023-02-07T05:17:51.711Z,102846.71875
2023-02-07T05:18:51.382Z,102846.5703125
2023-02-07T05:19:51.384Z,102845.67578125
2023-02-07T05:20:52.426Z,102845.99609375
2023-02-07T05:21:51.474Z,102847.03125
2023-02-07T05:22:51.726Z,102845.5859375
2023-02-07T05:23:51.708Z,102848.69921875
2023-02-07T05:24:53.762Z,102847.82421875
2023-02-07T05:25:51.391Z,102849.6796875
2023-02-07T05:26:51.477Z,102847.71484375
2023-02-07T05:27:51.772Z,102844.6328125
2023-02-07T05:28:51.378Z,102845.5
2023-02-07T05:29:51.463Z,102847.60546875
2023-02-07T05:30:51.672Z,102853.34765625
2023-02-07T05:31:51.496Z,102849.55859375
2023-02-07T05:32:51.714Z,102850.20703125
2023-02-07T05:33:51.447Z,102851.5625
2023-02-07T05:34:51.431Z,102858.34765625
2023-02-07T05:35:53.724Z,102855.96484375
2023-02-07T05:36:51.471Z,102863.04296875
2023-02-07T05:37:51.709Z,102858.53125
2023-02-07T05:38:51.710Z,102859.07421875
2023-02-07T05:39:51.384Z,102856.2421875
2023-02-07T05:40:51.437Z,102861.09375
2023-02-07T05:41:51.442Z,102857.58984375
2023-02-07T05:42:51.715Z,102858.27734375
2023-02-07T05:43:51.398Z,102856.3203125
2023-02-07T05:44:51.484Z,102856.30078125
2023-02-07T05:45:51.500Z,102859.5
2023-02-07T05:46:53.714Z,102862.0078125
2023-02-07T05:47:51.722Z,102858.078125
2023-02-07T05:48:51.433Z,102864.28125
2023-02-07T05:49:51.474Z,102858.4609375
2023-02-07T05:50:51.503Z,102861.03515625
2023-02-07T05:51:51.351Z,102861.32421875
2023-02-07T05:52:51.710Z,102857.7265625
2023-02-07T05:53:51.724Z,102855.41015625
2023-02-07T05:54:51.473Z,102857.03125
2023-02-07T05:55:51.468Z,102859.89453125
2023-02-07T05:56:51.373Z,102855.16796875
2023-02-07T05:57:56.123Z,102856.6484375
2023-02-07T05:58:51.385Z,102859.80078125
2023-02-07T05:59:51.431Z,102857.51171875
2023-02-07T06:00:51.444Z,102854.5546875
2023-02-07T06:01:51.366Z,102858.95703125
2023-02-07T06:02:51.834Z,102863.140625
2023-02-07T06:03:51.630Z,102865.28515625
2023-02-07T06:04:51.466Z,102867.85546875
2023-02-07T06:05:51.439Z,102865.04296875
2023-02-07T06:06:51.483Z,102871.671875
2023-02-07T06:07:51.713Z,102872.89453125
2023-02-07T06:08:56.144Z,102871.34765625
2023-02-07T06:09:51.485Z,102869.87109375
2023-02-07T06:10:51.384Z,102868.2734375
2023-02-07T06:11:51.438Z,102861.85546875
2023-02-07T06:12:51.713Z,102866.09765625
2023-02-07T06:13:51.482Z,102868.953125
2023-02-07T06:14:51.372Z,102868.53125
2023-02-07T06:15:51.529Z,102872.45703125
2023-02-07T06:16:51.468Z,102873.328125
2023-02-07T06:17:51.716Z,102878.703125
2023-02-07T06:18:51.486Z,102879.18359375
2023-02-07T06:19:53.818Z,102879.69921875
2023-02-07T06:20:51.486Z,102880.3125
2023-02-07T06:21:51.379Z,102880.53515625
2023-02-07T06:22:51.707Z,102883.74609375
2023-02-07T06:23:51.723Z,102880.66796875
2023-02-07T06:24:51.511Z,102885.9765625
2023-02-07T06:25:51.565Z,102890.125
2023-02-07T06:26:51.377Z,102888.19921875
2023-02-07T06:27:51.730Z,102882.85546875
2023-02-07T06:28:51.449Z,102886.14453125
2023-02-07T06:29:51.484Z,102884.1484375
2023-02-07T06:30:53.880Z,102882.95703125
2023-02-07T06:31:51.568Z,102884.640625
2023-02-07T06:32:51.720Z,102884.515625
2023-02-07T06:33:51.486Z,102882.78125
2023-02-07T06:34:51.506Z,102882.5859375
2023-02-07T06:35:51.471Z,102885.38671875
2023-02-07T06:36:51.359Z,102883.80859375
2023-02-07T06:37:54.107Z,102889.01953125
2023-02-07T06:38:51.713Z,102885.61328125
2023-02-07T06:39:51.474Z,102892.01171875
2023-02-07T06:40:51.393Z,102888.80078125
2023-02-07T06:41:53.740Z,102893.83984375
2023-02-07T06:42:51.724Z,102896.8359375
2023-02-07T06:43:51.416Z,102894.6171875
2023-02-07T06:44:51.407Z,102896.453125
2023-02-07T06:45:51.398Z,102898.9296875
2023-02-07T06:46:51.441Z,102896.77734375
2023-02-07T06:47:51.708Z,102897.87109375
2023-02-07T06:48:51.382Z,102899.66796875
2023-02-07T06:49:51.393Z,102901.88671875
2023-02-07T06:50:51.361Z,102905.06640625
2023-02-07T06:51:51.465Z,102906.96484375
2023-02-07T06:52:53.779Z,102913.0390625
2023-02-07T06:53:51.708Z,102911.65234375
2023-02-07T06:54:51.486Z,102914.8984375
2023-02-07T06:55:51.384Z,102920.8828125
2023-02-07T06:56:51.440Z,102920.84375
2023-02-07T06:57:51.710Z,102921.421875
2023-02-07T06:58:51.466Z,102921.6796875
2023-02-07T06:59:51.465Z,102923.59765625
2023-02-07T07:00:51.432Z,102922.73046875
2023-02-07T07:01:51.412Z,102927.52734375
2023-02-07T07:02:51.752Z,102932.734375
2023-02-07T07:03:53.793Z,102929.9140625
2023-02-07T07:04:51.489Z,102934.57421875
2023-02-07T07:05:51.486Z,102936.01171875
2023-02-07T07:06:51.506Z,102941.41796875
2023-02-07T07:07:51.711Z,102939.48046875
2023-02-07T07:08:51.867Z,102943.7265625
2023-02-07T07:09:51.444Z,102952.8828125
2023-02-07T07:10:51.502Z,102952.78515625
2023-02-07T07:11:51.527Z,102952.765625
2023-02-07T07:12:51.711Z,102953.6328125
2023-02-07T07:13:51.378Z,102958.06640625
2023-02-07T07:14:53.790Z,102958.1328125
2023-02-07T07:15:51.519Z,102954.21484375
2023-02-07T07:16:51.401Z,102959.51953125
2023-02-07T07:17:51.708Z,102960.3515625
2023-02-07T07:18:51.480Z,102967.84375
2023-02-07T07:19:51.381Z,102968.2578125
2023-02-07T07:20:51.466Z,102970.765625
2023-02-07T07:21:51.366Z,102969.63671875
2023-02-07T07:22:51.718Z,102969.31640625
2023-02-07T07:23:51.724Z,102973.71484375
2023-02-07T07:24:51.399Z,102973.44921875
2023-02-07T07:25:53.817Z,102977.69140625
2023-02-07T07:26:51.498Z,102982.984375
2023-02-07T07:27:51.743Z,102981.81640625
2023-02-07T07:28:51.394Z,102980.65234375
2023-02-07T07:29:51.426Z,102982.1328125
2023-02-07T07:30:51.455Z,102976.94921875
2023-02-07T07:31:51.564Z,102974.390625
2023-02-07T07:32:51.731Z,102977.21484375
2023-02-07T07:33:51.363Z,102972.1484375
2023-02-07T07:34:51.501Z,102977.1875
2023-02-07T07:35:51.371Z,102974.51953125
2023-02-07T07:36:53.693Z,102971.94921875
2023-02-07T07:37:51.733Z,102972.3671875
2023-02-07T07:38:52.367Z,102969.22265625
2023-02-07T07:39:51.479Z,102972.41015625
2023-02-07T07:40:51.487Z,102969.75390625
2023-02-07T07:41:51.471Z,102969.12890625
2023-02-07T07:42:51.714Z,102968.7109375
2023-02-07T07:43:51.473Z,102966.68359375
2023-02-07T07:44:51.449Z,102967.0078125
2023-02-07T07:45:51.364Z,102969.65234375
2023-02-07T07:46:51.484Z,102970.7109375
2023-02-07T07:47:56.211Z,102976.23828125
2023-02-07T07:48:51.495Z,102978.8984375
2023-02-07T07:49:51.982Z,102980.203125
2023-02-07T07:50:51.481Z,102989.5234375
2023-02-07T07:51:51.410Z,102984.0859375
2023-02-07T07:52:51.483Z,102984.01953125
2023-02-07T07:53:51.722Z,102989.81640625
2023-02-07T07:54:51.484Z,102986.7890625
2023-02-07T07:55:51.691Z,102986.19140625
2023-02-07T07:56:51.485Z,102984.70703125
2023-02-07T07:57:51.703Z,102982.1640625
2023-02-07T07:58:53.775Z,102984.140625
2023-02-07T07:59:51.358Z,102980.421875
2023-02-07T08:00:51.499Z,102980.94140625
2023-02-07T08:01:51.403Z,102983.42578125
2023-02-07T08:02:51.712Z,102980.609375
2023-02-07T08:03:51.462Z,102980.51171875
2023-02-07T08:04:51.488Z,102981.36328125
2023-02-07T08:05:51.388Z,102981.0078125
2023-02-07T08:06:51.420Z,102985.8046875
2023-02-07T08:07:51.722Z,102986.0625
2023-02-07T08:08:51.723Z,102988.89453125
2023-02-07T08:09:53.764Z,102988.98046875
2023-02-07T08:10:51.367Z,102990.09765625
2023-02-07T08:11:51.552Z,102990.28125
2023-02-07T08:12:51.722Z,102988.2890625
2023-02-07T08:13:51.467Z,102985.98046875
2023-02-07T08:14:51.506Z,102986.55859375
2023-02-07T08:15:51.388Z,102984.1171875
2023-02-07T08:16:51.475Z,102981.25
2023-02-07T08:17:51.711Z,102981.6640625
2023-02-07T08:18:51.403Z,102980.64453125
2023-02-07T08:19:51.427Z,102973.96484375
2023-02-07T08:20:53.777Z,102979.93359375
2023-02-07T08:21:51.467Z,102978.64453125
2023-02-07T08:22:51.716Z,102977.07421875
2023-02-07T08:23:51.730Z,102982.8203125
2023-02-07T08:24:51.462Z,102984.453125
2023-02-07T08:25:51.429Z,102982.9921875
2023-02-07T08:26:51.362Z,102982.02734375
2023-02-07T08:27:51.806Z,102986.15234375
2023-02-07T08:28:51.358Z,102985.01953125
2023-02-07T08:29:51.382Z,102983.078125
2023-02-07T08:30:51.392Z,102985.1875
2023-02-07T08:31:53.851Z,102980.88671875
2023-02-07T08:32:51.739Z,102980.12109375
2023-02-07T08:33:51.466Z,102979.9296875
2023-02-07T08:34:51.440Z,102981.015625
2023-02-07T08:35:51.367Z,102983.296875
2023-02-07T08:36:51.458Z,102989.15234375
2023-02-07T08:37:51.717Z,102989.41796875
2023-02-07T08:38:51.714Z,102992.640625
2023-02-07T08:39:51.385Z,102996.30859375
2023-02-07T08:40:51.480Z,102992.65234375
2023-02-07T08:41:51.481Z,102992.828125
2023-02-07T08:42:56.190Z,102995.4921875
2023-02-07T08:43:51.466Z,102994.546875
2023-02-07T08:44:51.461Z,102997.1796875
2023-02-07T08:45:51.537Z,102996.44140625
2023-02-07T08:46:51.368Z,102997.65625
2023-02-07T08:47:51.721Z,103002.06640625
2023-02-07T08:48:51.382Z,102998.59765625
2023-02-07T08:49:51.465Z,102999.7421875
2023-02-07T08:50:51.494Z,102997.4765625
2023-02-07T08:51:51.369Z,103002.8671875
2023-02-07T08:52:51.827Z,103001.875
2023-02-07T08:53:56.263Z,102999.72265625
2023-02-07T08:54:51.523Z,102991.640625
2023-02-07T08:55:51.443Z,102996.98046875
2023-02-07T08:56:51.351Z,102992.83203125
2023-02-07T08:57:51.717Z,102990.08984375
2023-02-07T08:58:51.448Z,102991.109375
2023-02-07T08:59:51.488Z,102990.43359375
2023-02-07T09:00:51.454Z,102990.57421875
2023-02-07T09:01:51.495Z,102996.01953125
2023-02-07T09:02:51.712Z,102993.55859375
2023-02-07T09:03:51.498Z,102991.50390625
2023-02-07T09:04:53.726Z,102995.8359375
2023-02-07T09:05:51.466Z,102990.89453125
2023-02-07T09:06:51.362Z,102995.51171875
2023-02-07T09:07:51.725Z,102997.30078125
2023-02-07T09:08:51.730Z,102993.8203125
2023-02-07T09:09:51.501Z,102995.2109375
2023-02-07T09:10:51.547Z,102992.61328125
2023-02-07T09:11:51.531Z,102993.75390625
2023-02-07T09:12:51.715Z,102988.7890625
2023-02-07T09:13:51.361Z,102993.09765625
2023-02-07T09:14:51.355Z,102991.12890625
2023-02-07T09:15:53.835Z,102993.109375
2023-02-07T09:16:51.426Z,102992.1640625
2023-02-07T09:17:51.731Z,102990.890625
2023-02-07T09:18:51.511Z,102987.08984375
2023-02-07T09:19:51.482Z,102985.48046875
2023-02-07T09:20:51.484Z,102986.421875
2023-02-07T09:21:51.380Z,102980.26953125
2023-02-07T09:22:51.727Z,102980.92578125
2023-02-07T09:23:51.713Z,102981.66015625
2023-02-07T09:24:51.402Z,102978.5703125
2023-02-07T09:25:51.382Z,102975.31640625
2023-02-07T09:26:53.756Z,102976.26171875
2023-02-07T09:27:51.748Z,102975.85546875
2023-02-07T09:28:51.371Z,102974.58203125
2023-02-07T09:29:51.456Z,102972.84765625
2023-02-07T09:30:52.211Z,102973.30859375
2023-02-07T09:31:51.580Z,102969.328125
2023-02-07T09:32:51.715Z,102967.73046875
2023-02-07T09:33:51.404Z,102974.359375
2023-02-07T09:34:51.377Z,102967.44921875
2023-02-07T09:35:51.369Z,102968.2890625
2023-02-07T09:36:51.365Z,102967.8359375
2023-02-07T09:37:56.153Z,102961.25390625
2023-02-07T09:38:51.730Z,102959.62890625
2023-02-07T09:39:51.382Z,102956.734375
2023-02-07T09:40:51.428Z,102954.8359375
2023-02-07T09:41:51.402Z,102955.5546875
2023-02-07T09:42:51.785Z,102958.2109375
2023-02-07T09:43:51.748Z,102956.17578125
2023-02-07T09:44:51.626Z,102959.0859375
2023-02-07T09:45:51.481Z,102957
2023-02-07T09:46:51.371Z,102958.80859375
2023-02-07T09:47:51.718Z,102959.70703125
2023-02-07T09:48:53.698Z,102955.8515625
2023-02-07T09:49:51.396Z,102955.9375
2023-02-07T09:50:51.395Z,102956.3984375
2023-02-07T09:51:51.494Z,102953.234375
2023-02-07T09:52:51.719Z,102956.84765625
2023-02-07T09:53:51.718Z,102955.72265625
2023-02-07T09:54:51.495Z,102959.921875
2023-02-07T09:55:51.405Z,102960.546875
2023-02-07T09:56:51.396Z,102956.27734375
2023-02-07T09:57:51.715Z,102956.890625
2023-02-07T09:58:51.480Z,102956.27734375